Time;durP1;ratioP1;P1;durP2;ratioP2;P2;SDS_P1;SDS_P2;PMS_P1;PMS_P2;Temp;Humidity;BMP_temperature;BMP_pressure;BME280_temperature;BME280_humidity;BME280_pressure;Samples;Min_cycle;Max_cycle;Signal;HPM_P1;HPM_P2
2022/01/17 00:00:16;;;;;;;34.92;17.38;;;;;;;;;;8341714;28;20039;-66
2022/01/17 00:04:17;;;;;;;44.60;20.05;;;;;;;;;;8342537;28;20079;-66
2022/01/17 00:08:17;;;;;;;37.40;17.70;;;;;;;;;;8344734;28;20027;-66
2022/01/17 00:12:17;;;;;;;39.30;18.80;;;;;;;;;;8342472;28;20028;-66
2022/01/17 00:16:40;;;;;;;38.22;20.02;;;;;;;;;;8342007;28;20036;-66
2022/01/17 00:20:44;;;;;;;38.92;18.40;;;;;;;;;;8342236;28;20059;-66
2022/01/17 00:24:44;;;;;;;35.58;16.50;;;;;;;;;;8344320;28;20630;-66
2022/01/17 00:28:45;;;;;;;36.13;16.67;;;;;;;;;;8344456;28;20621;-66
2022/01/17 00:51:29;;;;;;;19.70;10.88;;;;;;;;;;8337090;28;20072;-66
2022/01/17 00:55:30;;;;;;;23.63;12.70;;;;;;;;;;8344315;28;20033;-66
2022/01/17 00:59:30;;;;;;;24.25;13.40;;;;;;;;;;8340961;28;20062;-66
2022/01/17 01:03:30;;;;;;;30.10;14.35;;;;;;;;;;8342746;28;20064;-66
2022/01/17 01:07:31;;;;;;;26.70;13.60;;;;;;;;;;8343697;28;20124;-66
2022/01/17 01:11:31;;;;;;;22.13;12.97;;;;;;;;;;8342497;28;20059;-66
2022/01/17 01:20:04;;;;;;;23.27;12.55;;;;;;;;;;8317211;28;20287;-66
2022/01/17 01:28:24;;;;;;;18.25;10.35;;;;;;;;;;8339947;28;20055;-66
2022/01/17 01:32:29;;;;;;;18.25;10.13;;;;;;;;;;8339780;28;20041;-66
2022/01/17 01:36:30;;;;;;;24.05;12.45;;;;;;;;;;8339321;28;20029;-66
2022/01/17 01:40:32;;;;;;;19.02;11.13;;;;;;;;;;8343288;28;20044;-66
2022/01/17 01:44:33;;;;;;;19.83;10.70;;;;;;;;;;8340471;28;20024;-66
2022/01/17 01:48:34;;;;;;;20.95;11.70;;;;;;;;;;8340860;28;20120;-66
2022/01/17 01:52:34;;;;;;;27.40;14.00;;;;;;;;;;8343222;28;20039;-65
2022/01/17 01:56:35;;;;;;;23.83;11.93;;;;;;;;;;8347804;28;20481;-66
2022/01/17 02:00:36;;;;;;;23.40;12.70;;;;;;;;;;8347242;28;20044;-65
2022/01/17 02:04:36;;;;;;;22.17;12.30;;;;;;;;;;8343629;28;20604;-66
2022/01/17 02:08:37;;;;;;;20.17;11.00;;;;;;;;;;8347273;28;20443;-66
2022/01/17 02:12:38;;;;;;;20.80;11.77;;;;;;;;;;8345958;28;20618;-66
2022/01/17 02:16:41;;;;;;;20.13;10.73;;;;;;;;;;8347433;28;20053;-66
2022/01/17 02:20:58;;;;;;;19.08;11.50;;;;;;;;;;8345310;28;20028;-66
2022/01/17 02:24:58;;;;;;;16.70;9.88;;;;;;;;;;8348598;28;20024;-66
2022/01/17 02:28:58;;;;;;;18.37;9.43;;;;;;;;;;8347715;28;20486;-66
2022/01/17 02:32:59;;;;;;;14.10;7.82;;;;;;;;;;8345390;28;21018;-66
2022/01/17 02:37:00;;;;;;;14.90;9.10;;;;;;;;;;8346039;28;20021;-66
2022/01/17 02:41:00;;;;;;;18.08;9.10;;;;;;;;;;8345307;28;20025;-66
2022/01/17 02:45:09;;;;;;;16.52;9.02;;;;;;;;;;8346282;28;20716;-66
2022/01/17 02:49:10;;;;;;;16.38;9.48;;;;;;;;;;8345854;28;20284;-66
2022/01/17 02:53:12;;;;;;;13.68;8.80;;;;;;;;;;8346432;28;20072;-66
2022/01/17 02:57:12;;;;;;;11.40;7.70;;;;;;;;;;8347509;28;20033;-66
2022/01/17 03:01:20;;;;;;;13.70;8.00;;;;;;;;;;8346018;28;20086;-66
2022/01/17 03:05:21;;;;;;;14.13;8.70;;;;;;;;;;8345333;28;20040;-66
2022/01/17 03:09:23;;;;;;;17.73;9.63;;;;;;;;;;8346529;28;20096;-66
2022/01/17 03:13:31;;;;;;;15.80;8.68;;;;;;;;;;8345327;28;20025;-66
2022/01/17 03:17:31;;;;;;;14.88;8.75;;;;;;;;;;8344111;28;20091;-66
2022/01/17 03:21:32;;;;;;;15.27;9.05;;;;;;;;;;8346138;28;20032;-66
2022/01/17 03:25:32;;;;;;;15.05;8.13;;;;;;;;;;8345863;28;20021;-66
2022/01/17 03:29:33;;;;;;;12.70;7.70;;;;;;;;;;8344269;28;20032;-66
2022/01/17 03:33:33;;;;;;;14.02;8.00;;;;;;;;;;8345334;28;20045;-66
2022/01/17 03:37:34;;;;;;;13.82;8.35;;;;;;;;;;8342928;28;20386;-66
2022/01/17 03:41:34;;;;;;;15.25;8.50;;;;;;;;;;8345389;28;20032;-66
2022/01/17 03:45:34;;;;;;;12.63;7.85;;;;;;;;;;8344225;28;20031;-66
2022/01/17 03:49:34;;;;;;;21.38;9.68;;;;;;;;;;8343493;28;20066;-66
2022/01/17 03:53:34;;;;;;;13.40;8.43;;;;;;;;;;8344925;28;20033;-66
2022/01/17 03:57:35;;;;;;;11.57;7.53;;;;;;;;;;8344044;28;20028;-66
2022/01/17 04:01:35;;;;;;;11.48;7.45;;;;;;;;;;8343602;28;20044;-66
2022/01/17 04:05:36;;;;;;;12.50;8.30;;;;;;;;;;8343048;28;20275;-66
2022/01/17 04:09:36;;;;;;;16.40;8.35;;;;;;;;;;8344460;28;20024;-66
2022/01/17 04:13:36;;;;;;;14.85;8.15;;;;;;;;;;8342896;28;20033;-66
2022/01/17 04:17:36;;;;;;;16.02;8.75;;;;;;;;;;8344380;28;20123;-66
2022/01/17 04:21:37;;;;;;;12.52;7.65;;;;;;;;;;8343915;28;20036;-66
2022/01/17 04:25:38;;;;;;;14.07;8.57;;;;;;;;;;8341700;28;20032;-66
2022/01/17 04:29:39;;;;;;;20.52;10.57;;;;;;;;;;8342745;28;20211;-66
2022/01/17 04:33:39;;;;;;;13.98;8.38;;;;;;;;;;8342861;28;20221;-66
2022/01/17 04:37:39;;;;;;;13.68;8.50;;;;;;;;;;8342622;28;20040;-66
2022/01/17 04:41:40;;;;;;;15.80;8.70;;;;;;;;;;8342921;28;20035;-66
2022/01/17 04:45:40;;;;;;;11.10;6.60;;;;;;;;;;8341095;28;21389;-66
2022/01/17 04:49:40;;;;;;;13.48;7.90;;;;;;;;;;8343294;28;20044;-66
2022/01/17 04:53:42;;;;;;;13.00;7.30;;;;;;;;;;8342507;28;20064;-66
2022/01/17 04:57:43;;;;;;;10.00;6.78;;;;;;;;;;8343275;28;20089;-66
2022/01/17 05:01:44;;;;;;;12.73;7.70;;;;;;;;;;8342768;28;20097;-66
2022/01/17 05:05:45;;;;;;;11.95;7.78;;;;;;;;;;8341006;28;20075;-66
2022/01/17 05:09:46;;;;;;;11.07;7.28;;;;;;;;;;8344642;28;20035;-66
2022/01/17 05:13:49;;;;;;;11.73;7.22;;;;;;;;;;8342552;28;20485;-66
2022/01/17 05:17:58;;;;;;;12.52;7.35;;;;;;;;;;8341597;28;20301;-66
2022/01/17 05:21:59;;;;;;;12.55;7.82;;;;;;;;;;8342019;28;20964;-66
2022/01/17 05:25:59;;;;;;;19.27;7.00;;;;;;;;;;8343627;28;20090;-66
2022/01/17 05:29:59;;;;;;;17.00;8.57;;;;;;;;;;8349972;28;20032;-66
2022/01/17 05:33:59;;;;;;;12.60;7.22;;;;;;;;;;8348980;28;20033;-66
2022/01/17 05:38:00;;;;;;;12.98;6.95;;;;;;;;;;8346519;28;20032;-66
2022/01/17 05:42:00;;;;;;;17.02;8.10;;;;;;;;;;8346697;28;20153;-66
2022/01/17 05:46:00;;;;;;;14.23;8.68;;;;;;;;;;8346724;28;20033;-66
2022/01/17 05:50:03;;;;;;;12.73;7.88;;;;;;;;;;8348495;28;20135;-66
2022/01/17 05:54:03;;;;;;;13.45;7.57;;;;;;;;;;8348836;28;20025;-66
2022/01/17 05:58:03;;;;;;;12.85;7.38;;;;;;;;;;8344856;28;20024;-66
2022/01/17 06:02:04;;;;;;;11.90;6.80;;;;;;;;;;8347724;28;20283;-66
2022/01/17 06:06:05;;;;;;;13.98;6.93;;;;;;;;;;8346987;28;20039;-66
2022/01/17 06:10:05;;;;;;;12.27;6.93;;;;;;;;;;8348726;28;20020;-66
2022/01/17 06:14:07;;;;;;;16.17;7.63;;;;;;;;;;8345992;28;20029;-66
2022/01/17 06:18:07;;;;;;;14.48;7.97;;;;;;;;;;8345743;28;20095;-66
2022/01/17 06:22:10;;;;;;;13.82;7.93;;;;;;;;;;8341682;28;20706;-66
2022/01/17 06:26:10;;;;;;;13.85;8.40;;;;;;;;;;8347139;28;20365;-66
2022/01/17 06:30:13;;;;;;;16.83;9.30;;;;;;;;;;8344821;28;20032;-66
2022/01/17 06:34:13;;;;;;;14.15;8.05;;;;;;;;;;8343808;28;20024;-66
2022/01/17 06:38:13;;;;;;;12.35;7.25;;;;;;;;;;8347304;28;20020;-65
2022/01/17 06:42:14;;;;;;;13.98;7.38;;;;;;;;;;8337717;28;20036;-66
2022/01/17 06:46:15;;;;;;;12.75;7.10;;;;;;;;;;8341629;28;20944;-66
2022/01/17 06:50:15;;;;;;;11.77;6.97;;;;;;;;;;8346113;28;20113;-66
2022/01/17 06:54:15;;;;;;;11.30;6.50;;;;;;;;;;8344066;28;20037;-66
2022/01/17 06:58:15;;;;;;;11.20;6.83;;;;;;;;;;8345647;28;20106;-66
2022/01/17 07:02:15;;;;;;;12.70;7.05;;;;;;;;;;8340766;28;20586;-66
2022/01/17 07:06:16;;;;;;;15.25;8.32;;;;;;;;;;8338564;28;20037;-66
2022/01/17 07:10:16;;;;;;;12.55;7.47;;;;;;;;;;8339083;28;20021;-66
2022/01/17 07:14:17;;;;;;;11.95;7.03;;;;;;;;;;8339014;28;20433;-66
2022/01/17 07:18:17;;;;;;;10.70;6.50;;;;;;;;;;8337646;28;20496;-66
2022/01/17 07:22:17;;;;;;;13.45;7.35;;;;;;;;;;8340509;28;20017;-66
2022/01/17 07:26:17;;;;;;;15.32;7.32;;;;;;;;;;8338874;28;20584;-66
2022/01/17 07:30:18;;;;;;;15.57;8.00;;;;;;;;;;8335904;28;20059;-66
2022/01/17 07:34:18;;;;;;;12.48;7.47;;;;;;;;;;8338473;28;20147;-67
2022/01/17 07:38:18;;;;;;;16.50;8.33;;;;;;;;;;8339887;28;20594;-67
2022/01/17 07:42:19;;;;;;;13.20;7.53;;;;;;;;;;8341531;28;20294;-66
2022/01/17 07:46:33;;;;;;;11.63;6.90;;;;;;;;;;8338905;28;20282;-67
2022/01/17 07:50:34;;;;;;;11.48;6.97;;;;;;;;;;8335987;28;20039;-67
2022/01/17 07:54:43;;;;;;;10.13;6.53;;;;;;;;;;8338142;28;20560;-67
2022/01/17 07:58:44;;;;;;;12.85;7.15;;;;;;;;;;8339304;28;20028;-67
2022/01/17 08:02:44;;;;;;;11.85;6.82;;;;;;;;;;8336765;28;20234;-67
2022/01/17 08:06:46;;;;;;;15.68;8.00;;;;;;;;;;8338900;28;20051;-67
2022/01/17 08:10:46;;;;;;;12.23;7.25;;;;;;;;;;8340780;28;20086;-67
2022/01/17 08:14:46;;;;;;;15.77;7.97;;;;;;;;;;8336556;28;20024;-67
2022/01/17 08:18:47;;;;;;;10.70;6.93;;;;;;;;;;8334692;28;20331;-67
2022/01/17 08:22:47;;;;;;;14.15;7.63;;;;;;;;;;8338064;28;20221;-67
2022/01/17 08:26:47;;;;;;;14.52;8.80;;;;;;;;;;8338269;28;20275;-67
2022/01/17 08:30:48;;;;;;;14.75;7.80;;;;;;;;;;8339270;28;20048;-67
2022/01/17 08:34:48;;;;;;;12.90;8.10;;;;;;;;;;8338540;28;20016;-67
2022/01/17 08:38:48;;;;;;;11.63;7.60;;;;;;;;;;8332513;28;20017;-67
2022/01/17 08:42:49;;;;;;;11.93;7.20;;;;;;;;;;8334487;28;20496;-67
2022/01/17 08:46:49;;;;;;;14.90;7.65;;;;;;;;;;8332111;28;20433;-67
2022/01/17 08:50:50;;;;;;;12.20;7.72;;;;;;;;;;8335796;28;20377;-68
2022/01/17 08:54:51;;;;;;;12.20;7.72;;;;;;;;;;8334477;28;20056;-67
2022/01/17 08:58:51;;;;;;;11.57;7.20;;;;;;;;;;8333634;28;20545;-67
2022/01/17 09:02:51;;;;;;;14.30;8.85;;;;;;;;;;8335607;28;20091;-67
2022/01/17 09:06:52;;;;;;;11.35;7.38;;;;;;;;;;8340400;28;20114;-67
2022/01/17 09:10:55;;;;;;;10.88;6.95;;;;;;;;;;8340466;28;20021;-67
2022/01/17 09:14:55;;;;;;;11.13;6.90;;;;;;;;;;8341672;28;20121;-67
2022/01/17 09:18:55;;;;;;;10.77;6.90;;;;;;;;;;8338066;28;20060;-67
2022/01/17 09:22:56;;;;;;;9.65;7.07;;;;;;;;;;8340839;28;20057;-66
2022/01/17 09:26:56;;;;;;;8.82;6.57;;;;;;;;;;8341132;28;20346;-67
2022/01/17 09:30:56;;;;;;;9.52;6.60;;;;;;;;;;8339557;28;20040;-67
2022/01/17 09:34:56;;;;;;;12.00;7.63;;;;;;;;;;8340827;28;20044;-67
2022/01/17 09:38:57;;;;;;;10.70;6.93;;;;;;;;;;8338398;28;20143;-67
2022/01/17 09:42:59;;;;;;;14.43;7.40;;;;;;;;;;8337917;28;20369;-67
2022/01/17 09:46:59;;;;;;;12.25;6.88;;;;;;;;;;8338486;28;20085;-67
2022/01/17 09:51:10;;;;;;;14.15;7.80;;;;;;;;;;8339373;28;20074;-67
2022/01/17 09:55:11;;;;;;;11.90;7.13;;;;;;;;;;8340370;28;20560;-67
2022/01/17 09:59:11;;;;;;;15.52;8.88;;;;;;;;;;8340117;28;20568;-67
2022/01/17 10:03:13;;;;;;;14.25;8.43;;;;;;;;;;8331088;28;20809;-67
2022/01/17 10:07:13;;;;;;;13.15;8.38;;;;;;;;;;8334667;28;20127;-67
2022/01/17 10:11:16;;;;;;;13.05;8.40;;;;;;;;;;8335617;28;20046;-67
2022/01/17 10:15:22;;;;;;;12.18;7.43;;;;;;;;;;8336500;28;20104;-67
2022/01/17 10:19:25;;;;;;;10.60;6.82;;;;;;;;;;8334972;28;20058;-66
2022/01/17 10:36:05;;;;;;;10.07;6.60;;;;;;;;;;8343271;28;20374;-67
2022/01/17 10:40:15;;;;;;;9.35;6.25;;;;;;;;;;8344318;28;20039;-67
2022/01/17 10:44:35;;;;;;;10.73;6.35;;;;;;;;;;8344944;28;20064;-67
2022/01/17 10:48:36;;;;;;;10.55;5.82;;;;;;;;;;8343326;28;20230;-67
2022/01/17 10:52:47;;;;;;;9.70;5.80;;;;;;;;;;8345586;28;20541;-67
2022/01/17 10:56:54;;;;;;;9.10;5.88;;;;;;;;;;8338991;28;20063;-68
2022/01/17 11:00:55;;;;;;;12.90;6.18;;;;;;;;;;8328884;28;20413;-68
2022/01/17 11:05:01;;;;;;;9.45;5.18;;;;;;;;;;8334587;28;20147;-67
2022/01/17 11:09:05;;;;;;;8.50;5.78;;;;;;;;;;8336151;28;20029;-67
2022/01/17 11:13:05;;;;;;;;;;;;;;;;;;8336423;28;20842;-67
2022/01/17 11:17:20;;;;;;;12.02;6.22;;;;;;;;;;8335774;28;20021;-67
2022/01/17 11:21:20;;;;;;;9.32;5.68;;;;;;;;;;8336140;28;20418;-67
2022/01/17 11:25:25;;;;;;;15.23;5.65;;;;;;;;;;8335382;28;20159;-67
2022/01/17 11:29:26;;;;;;;8.98;5.90;;;;;;;;;;8335572;28;20953;-67
2022/01/17 11:33:26;;;;;;;10.05;6.38;;;;;;;;;;8333802;28;20037;-67
2022/01/17 11:37:31;;;;;;;9.43;6.30;;;;;;;;;;8336733;28;20799;-67
2022/01/17 11:41:31;;;;;;;;;;;;;;;;;;8336992;28;20061;-67
2022/01/17 11:45:32;;;;;;;10.68;6.40;;;;;;;;;;8336440;28;19917;-67
2022/01/17 11:49:35;;;;;;;12.38;6.30;;;;;;;;;;8335500;28;20783;-67
2022/01/17 11:53:36;;;;;;;7.93;5.60;;;;;;;;;;8335800;28;20052;-67
2022/01/17 11:57:36;;;;;;;8.55;5.63;;;;;;;;;;8335612;28;20503;-67
2022/01/17 12:01:37;;;;;;;7.80;5.75;;;;;;;;;;8334548;28;20452;-67
2022/01/17 12:05:38;;;;;;;7.95;5.57;;;;;;;;;;8333061;28;20032;-67
2022/01/17 12:09:43;;;;;;;7.93;5.85;;;;;;;;;;8335584;28;20032;-67
2022/01/17 12:13:44;;;;;;;8.82;5.82;;;;;;;;;;8334370;28;20028;-67
2022/01/17 12:17:44;;;;;;;9.40;6.68;;;;;;;;;;8335212;28;20052;-67
2022/01/17 12:21:47;;;;;;;10.25;6.65;;;;;;;;;;8334588;28;20044;-67
2022/01/17 12:25:47;;;;;;;13.57;7.35;;;;;;;;;;8333253;28;20283;-66
2022/01/17 12:29:52;;;;;;;10.77;6.97;;;;;;;;;;8335358;28;20028;-67
2022/01/17 12:34:12;;;;;;;11.85;7.57;;;;;;;;;;8334202;28;20067;-66
2022/01/17 12:38:28;;;;;;;9.82;6.97;;;;;;;;;;8331519;28;20081;-66
2022/01/17 12:42:28;;;;;;;11.30;7.57;;;;;;;;;;8333680;28;20029;-66
2022/01/17 12:46:28;;;;;;;11.23;7.90;;;;;;;;;;8334154;28;20113;-67
2022/01/17 12:50:32;;;;;;;12.43;7.50;;;;;;;;;;8336581;28;20271;-66
2022/01/17 12:54:33;;;;;;;11.10;7.27;;;;;;;;;;8339486;28;20037;-67
2022/01/17 12:58:35;;;;;;;12.75;7.85;;;;;;;;;;8336687;28;20086;-67
2022/01/17 13:02:54;;;;;;;12.05;7.18;;;;;;;;;;8337172;28;20041;-67
2022/01/17 13:06:54;;;;;;;10.82;7.25;;;;;;;;;;8338963;28;20258;-68
2022/01/17 13:10:55;;;;;;;12.50;8.38;;;;;;;;;;8339247;28;20108;-67
2022/01/17 13:14:55;;;;;;;12.25;7.93;;;;;;;;;;8339916;28;20500;-67
2022/01/17 13:18:56;;;;;;;12.02;8.20;;;;;;;;;;8337365;28;20401;-67
2022/01/17 13:23:05;;;;;;;10.93;7.55;;;;;;;;;;8336672;28;20108;-67
2022/01/17 13:27:09;;;;;;;10.60;7.85;;;;;;;;;;8336928;28;20016;-67
2022/01/17 13:31:20;;;;;;;12.73;7.97;;;;;;;;;;8338433;28;20032;-67
2022/01/17 13:35:22;;;;;;;12.60;8.00;;;;;;;;;;8334585;28;20310;-67
2022/01/17 13:39:23;;;;;;;12.65;8.60;;;;;;;;;;8337975;28;20417;-67
2022/01/17 13:43:24;;;;;;;12.18;8.13;;;;;;;;;;8339685;28;20025;-67
2022/01/17 13:47:26;;;;;;;12.48;8.57;;;;;;;;;;8336676;28;20055;-67
2022/01/17 13:51:27;;;;;;;13.63;8.55;;;;;;;;;;8339352;28;20545;-67
2022/01/17 13:55:29;;;;;;;10.88;7.78;;;;;;;;;;8339831;28;20028;-67
2022/01/17 13:59:30;;;;;;;12.00;8.00;;;;;;;;;;8343228;28;20094;-67
2022/01/17 14:03:30;;;;;;;11.02;7.65;;;;;;;;;;8341341;28;20230;-67
2022/01/17 14:07:32;;;;;;;14.38;9.38;;;;;;;;;;8342521;28;20025;-67
2022/01/17 14:11:35;;;;;;;14.48;8.00;;;;;;;;;;8343809;28;20040;-67
2022/01/17 14:15:35;;;;;;;15.07;8.45;;;;;;;;;;8341505;28;20620;-67
2022/01/17 14:19:36;;;;;;;16.50;9.20;;;;;;;;;;8343302;28;20131;-67
2022/01/17 14:23:36;;;;;;;12.15;8.43;;;;;;;;;;8342194;28;20389;-67
2022/01/17 14:27:37;;;;;;;12.68;8.05;;;;;;;;;;8343699;28;20400;-67
2022/01/17 14:31:38;;;;;;;13.02;8.38;;;;;;;;;;8340001;28;20326;-67
2022/01/17 14:35:38;;;;;;;15.45;8.38;;;;;;;;;;8342500;28;20028;-67
2022/01/17 14:39:38;;;;;;;14.30;8.15;;;;;;;;;;8343083;28;20029;-64
2022/01/17 14:43:38;;;;;;;13.95;9.20;;;;;;;;;;8341964;28;20513;-67
2022/01/17 14:47:40;;;;;;;15.77;9.02;;;;;;;;;;8339952;28;20036;-67
2022/01/17 14:51:43;;;;;;;16.45;9.35;;;;;;;;;;8341823;28;20706;-67
2022/01/17 14:59:27;;;;;;;16.13;9.82;;;;;;;;;;8341984;28;20141;-67
2022/01/17 15:00:09;;;;;;;24.20;10.05;;;;;;;;;;8341688;28;20131;-67
2022/01/17 15:04:10;;;;;;;12.93;8.75;;;;;;;;;;8338666;28;20029;-67
2022/01/17 15:08:11;;;;;;;14.23;9.15;;;;;;;;;;8341000;28;20059;-67
2022/01/17 15:12:11;;;;;;;18.08;10.40;;;;;;;;;;8341797;28;20430;-67
2022/01/17 15:16:11;;;;;;;14.57;9.32;;;;;;;;;;8338088;28;20067;-67
2022/01/17 15:20:12;;;;;;;17.00;10.13;;;;;;;;;;8340872;28;20142;-67
2022/01/17 15:24:13;;;;;;;16.60;9.40;;;;;;;;;;8340759;28;20638;-67
2022/01/17 15:28:14;;;;;;;15.57;9.98;;;;;;;;;;8341311;28;20171;-67
2022/01/17 15:32:15;;;;;;;19.75;11.05;;;;;;;;;;8337336;28;20390;-67
2022/01/17 15:36:16;;;;;;;18.38;10.55;;;;;;;;;;8340645;28;20582;-67
2022/01/17 15:40:16;;;;;;;13.95;9.05;;;;;;;;;;8341143;28;20358;-67
2022/01/17 15:44:16;;;;;;;14.18;9.15;;;;;;;;;;8338640;28;20032;-67
2022/01/17 15:48:20;;;;;;;15.98;9.85;;;;;;;;;;8337520;28;20063;-67
2022/01/17 15:52:20;;;;;;;16.00;9.73;;;;;;;;;;8334343;28;20719;-67
2022/01/17 15:56:20;;;;;;;13.65;9.68;;;;;;;;;;8335609;28;20735;-67
2022/01/17 16:00:21;;;;;;;16.30;10.32;;;;;;;;;;8336019;28;20258;-67
2022/01/17 16:04:21;;;;;;;16.88;10.40;;;;;;;;;;8333507;28;20286;-67
2022/01/17 16:08:22;;;;;;;19.73;11.48;;;;;;;;;;8337372;28;20125;-67
2022/01/17 16:12:22;;;;;;;17.70;9.70;;;;;;;;;;8334641;28;20036;-67
2022/01/17 16:16:22;;;;;;;16.73;10.57;;;;;;;;;;8333432;28;20037;-67
2022/01/17 16:20:27;;;;;;;19.35;12.18;;;;;;;;;;8332805;28;20889;-67
2022/01/17 16:24:27;;;;;;;;;;;;;;;;;;8331641;28;20071;-67
2022/01/17 16:28:27;;;;;;;16.38;9.68;;;;;;;;;;8334503;28;19912;-67
2022/01/17 16:32:27;;;;;;;16.45;9.93;;;;;;;;;;8332834;28;20356;-67
2022/01/17 16:36:28;;;;;;;14.65;8.98;;;;;;;;;;8335399;28;20021;-68
2022/01/17 16:40:28;;;;;;;17.42;10.25;;;;;;;;;;8337601;28;20037;-67
2022/01/17 16:44:28;;;;;;;17.33;9.53;;;;;;;;;;8335062;28;20526;-68
2022/01/17 16:48:28;;;;;;;14.20;8.85;;;;;;;;;;8333886;28;20352;-68
2022/01/17 16:52:29;;;;;;;18.13;9.63;;;;;;;;;;8334276;28;20584;-68
2022/01/17 16:56:29;;;;;;;21.67;11.07;;;;;;;;;;8333917;28;20056;-68
2022/01/17 17:00:29;;;;;;;18.88;11.77;;;;;;;;;;8334091;28;20087;-68
2022/01/17 17:04:29;;;;;;;15.82;9.80;;;;;;;;;;8332288;28;20036;-68
2022/01/17 17:08:30;;;;;;;16.80;10.07;;;;;;;;;;8333813;28;20032;-68
2022/01/17 17:12:30;;;;;;;15.05;9.32;;;;;;;;;;8332972;28;20373;-68
2022/01/17 17:16:30;;;;;;;17.27;10.18;;;;;;;;;;8334375;28;20044;-68
2022/01/17 17:20:31;;;;;;;15.80;9.25;;;;;;;;;;8333088;28;20036;-68
2022/01/17 17:24:31;;;;;;;22.27;9.10;;;;;;;;;;8338390;28;20013;-68
2022/01/17 17:28:31;;;;;;;14.15;9.27;;;;;;;;;;8338351;28;20029;-67
2022/01/17 17:32:32;;;;;;;17.02;10.45;;;;;;;;;;8339983;28;20044;-68
2022/01/17 17:36:32;;;;;;;15.48;9.73;;;;;;;;;;8338366;28;20072;-68
2022/01/17 17:40:33;;;;;;;17.52;9.15;;;;;;;;;;8341601;28;20064;-68
2022/01/17 17:44:34;;;;;;;15.65;9.68;;;;;;;;;;8340840;28;20032;-68
2022/01/17 17:48:35;;;;;;;13.63;8.80;;;;;;;;;;8338532;28;20467;-68
2022/01/17 17:52:35;;;;;;;15.05;9.05;;;;;;;;;;8338843;28;20113;-65
2022/01/17 17:56:36;;;;;;;13.48;8.55;;;;;;;;;;8336800;28;20059;-65
2022/01/17 18:00:37;;;;;;;13.90;9.25;;;;;;;;;;8339592;28;20071;-65
2022/01/17 18:04:37;;;;;;;12.15;8.27;;;;;;;;;;8340367;28;20406;-65
2022/01/17 18:08:37;;;;;;;15.63;9.23;;;;;;;;;;8339183;28;20560;-65
2022/01/17 18:12:37;;;;;;;17.73;9.38;;;;;;;;;;8338173;28;20126;-65
2022/01/17 18:16:38;;;;;;;15.30;8.88;;;;;;;;;;8338100;28;20044;-65
2022/01/17 18:20:38;;;;;;;17.00;8.82;;;;;;;;;;8338496;28;20029;-65
2022/01/17 18:24:38;;;;;;;12.70;8.15;;;;;;;;;;8340979;28;20187;-65
2022/01/17 18:28:39;;;;;;;13.80;7.72;;;;;;;;;;8339034;28;20024;-65
2022/01/17 18:32:40;;;;;;;13.30;8.80;;;;;;;;;;8338742;28;20454;-65
2022/01/17 18:36:40;;;;;;;15.85;10.45;;;;;;;;;;8335381;28;20037;-65
2022/01/17 18:40:41;;;;;;;12.55;8.00;;;;;;;;;;8337945;28;20591;-65
2022/01/17 18:44:41;;;;;;;15.65;8.95;;;;;;;;;;8335123;28;21019;-65
2022/01/17 18:48:41;;;;;;;17.23;9.23;;;;;;;;;;8335288;28;20110;-65
2022/01/17 18:52:42;;;;;;;18.60;11.43;;;;;;;;;;8338571;28;20600;-65
2022/01/17 18:56:42;;;;;;;18.67;10.32;;;;;;;;;;8336274;28;20166;-65
2022/01/17 19:00:42;;;;;;;17.98;9.27;;;;;;;;;;8337509;28;20048;-65
2022/01/17 19:04:44;;;;;;;16.52;9.35;;;;;;;;;;8334977;28;20119;-65
2022/01/17 19:08:44;;;;;;;16.48;10.15;;;;;;;;;;8336431;28;20256;-65
2022/01/17 19:12:44;;;;;;;16.60;8.88;;;;;;;;;;8336224;28;20413;-65
2022/01/17 19:16:50;;;;;;;14.80;9.40;;;;;;;;;;8337454;28;20031;-65
2022/01/17 19:25:03;;;;;;;19.58;10.57;;;;;;;;;;8337164;28;20082;-66
2022/01/17 19:29:04;;;;;;;12.98;8.70;;;;;;;;;;8335549;28;20029;-65
2022/01/17 19:33:04;;;;;;;12.48;8.55;;;;;;;;;;8335280;28;20406;-65
2022/01/17 19:37:04;;;;;;;15.60;9.13;;;;;;;;;;8334985;28;20044;-65
2022/01/17 19:41:04;;;;;;;17.00;9.32;;;;;;;;;;8334310;28;20024;-65
2022/01/17 19:45:05;;;;;;;14.02;8.63;;;;;;;;;;8333001;28;20039;-66
2022/01/17 19:49:05;;;;;;;13.85;8.93;;;;;;;;;;8336694;28;20413;-65
2022/01/17 19:53:06;;;;;;;11.05;7.38;;;;;;;;;;8335464;28;20142;-65
2022/01/17 19:57:06;;;;;;;12.43;8.52;;;;;;;;;;8333625;28;20108;-65
2022/01/17 20:01:07;;;;;;;12.88;8.55;;;;;;;;;;8333666;28;20041;-65
2022/01/17 20:05:08;;;;;;;12.80;8.35;;;;;;;;;;8332313;28;20051;-65
2022/01/17 20:09:08;;;;;;;12.60;7.82;;;;;;;;;;8333478;28;20043;-65
2022/01/17 20:13:10;;;;;;;14.60;7.55;;;;;;;;;;8332496;28;20024;-65
2022/01/17 20:17:10;;;;;;;11.40;7.38;;;;;;;;;;8330055;28;20303;-65
2022/01/17 20:21:10;;;;;;;13.75;8.05;;;;;;;;;;8330162;28;20036;-65
2022/01/17 20:25:11;;;;;;;10.35;7.60;;;;;;;;;;8331285;28;20474;-65
2022/01/17 20:29:11;;;;;;;13.52;8.93;;;;;;;;;;8331688;28;20024;-65
2022/01/17 20:33:13;;;;;;;15.68;8.63;;;;;;;;;;8331489;28;20029;-65
2022/01/17 20:37:13;;;;;;;15.15;8.73;;;;;;;;;;8333395;28;20530;-65
2022/01/17 20:41:13;;;;;;;15.02;9.27;;;;;;;;;;8332670;28;20431;-65
2022/01/17 20:45:14;;;;;;;20.40;10.40;;;;;;;;;;8332772;28;20025;-66
2022/01/17 20:49:14;;;;;;;18.13;9.45;;;;;;;;;;8334177;28;20021;-68
2022/01/17 20:53:14;;;;;;;13.55;8.82;;;;;;;;;;8333303;28;20024;-68
2022/01/17 20:57:14;;;;;;;17.75;9.75;;;;;;;;;;8333095;28;20033;-68
2022/01/17 21:01:14;;;;;;;13.80;8.50;;;;;;;;;;8332674;28;20852;-68
2022/01/17 21:05:18;;;;;;;13.85;8.77;;;;;;;;;;8333781;28;20290;-68
2022/01/17 21:09:19;;;;;;;12.93;8.65;;;;;;;;;;8333647;28;20020;-68
2022/01/17 21:13:19;;;;;;;16.17;9.27;;;;;;;;;;8333379;28;20469;-67
2022/01/17 21:17:19;;;;;;;14.77;8.65;;;;;;;;;;8332990;28;20208;-67
2022/01/17 21:21:20;;;;;;;19.00;9.93;;;;;;;;;;8330215;28;20396;-67
2022/01/17 21:25:21;;;;;;;15.18;9.07;;;;;;;;;;8332544;28;20032;-67
2022/01/17 21:29:21;;;;;;;22.70;9.50;;;;;;;;;;8335432;28;20331;-67
2022/01/17 21:33:21;;;;;;;11.57;7.65;;;;;;;;;;8331782;28;20045;-67
2022/01/17 21:37:23;;;;;;;13.20;8.40;;;;;;;;;;8329285;28;20025;-65
2022/01/17 21:41:23;;;;;;;17.88;9.20;;;;;;;;;;8333589;28;20039;-65
2022/01/17 21:45:23;;;;;;;11.70;7.82;;;;;;;;;;8333923;28;20033;-65
2022/01/17 21:49:24;;;;;;;13.30;7.78;;;;;;;;;;8336638;28;20475;-65
2022/01/17 21:53:24;;;;;;;14.50;8.80;;;;;;;;;;8335836;28;20452;-65
2022/01/17 21:57:24;;;;;;;14.82;9.77;;;;;;;;;;8336228;28;20037;-65
2022/01/17 22:01:25;;;;;;;17.23;9.35;;;;;;;;;;8335630;28;20603;-65
2022/01/17 22:05:25;;;;;;;19.02;9.77;;;;;;;;;;8335144;28;20037;-65
2022/01/17 22:09:26;;;;;;;16.92;10.68;;;;;;;;;;8338982;28;20029;-65
2022/01/17 22:13:26;;;;;;;23.15;11.48;;;;;;;;;;8341161;28;20033;-65
2022/01/17 22:17:28;;;;;;;17.40;9.40;;;;;;;;;;8340964;28;20136;-65
2022/01/17 22:21:28;;;;;;;15.38;8.95;;;;;;;;;;8339708;28;20017;-65
2022/01/17 22:25:29;;;;;;;16.10;9.30;;;;;;;;;;8337960;28;20085;-64
2022/01/17 22:29:29;;;;;;;15.80;9.68;;;;;;;;;;8340198;28;20057;-65
2022/01/17 22:33:29;;;;;;;19.73;10.07;;;;;;;;;;8340395;28;20250;-65
2022/01/17 22:37:30;;;;;;;14.70;10.20;;;;;;;;;;8340330;28;20325;-65
2022/01/17 22:41:30;;;;;;;13.93;9.05;;;;;;;;;;8342482;28;20078;-65
2022/01/17 22:45:33;;;;;;;15.52;9.80;;;;;;;;;;8340894;28;20033;-65
2022/01/17 22:49:35;;;;;;;17.35;10.55;;;;;;;;;;8340658;28;20400;-65
2022/01/17 22:53:35;;;;;;;17.42;10.32;;;;;;;;;;8340441;28;20112;-65
2022/01/17 22:57:36;;;;;;;17.98;9.90;;;;;;;;;;8340111;28;20021;-65
2022/01/17 23:01:36;;;;;;;15.60;10.32;;;;;;;;;;8339918;28;20048;-65
2022/01/17 23:05:37;;;;;;;21.88;12.48;;;;;;;;;;8339275;28;20060;-65
2022/01/17 23:09:37;;;;;;;19.65;11.25;;;;;;;;;;8340299;28;20503;-65
2022/01/17 23:13:37;;;;;;;18.95;10.93;;;;;;;;;;8341313;28;20024;-65
2022/01/17 23:17:39;;;;;;;22.23;12.05;;;;;;;;;;8340099;28;20044;-65
2022/01/17 23:21:41;;;;;;;19.13;11.07;;;;;;;;;;8339254;28;20059;-64
2022/01/17 23:25:41;;;;;;;15.55;9.82;;;;;;;;;;8338881;28;20040;-65
2022/01/17 23:29:44;;;;;;;22.13;11.48;;;;;;;;;;8336907;28;20021;-65
2022/01/17 23:34:00;;;;;;;19.27;10.98;;;;;;;;;;8337299;28;20608;-65
2022/01/17 23:38:00;;;;;;;18.83;10.10;;;;;;;;;;8337618;28;20017;-65
2022/01/17 23:42:00;;;;;;;20.42;11.73;;;;;;;;;;8337881;28;20020;-65
2022/01/17 23:46:00;;;;;;;25.35;12.00;;;;;;;;;;8339026;28;20033;-65
2022/01/17 23:50:00;;;;;;;25.88;12.85;;;;;;;;;;8340107;28;20478;-64
2022/01/17 23:54:01;;;;;;;23.15;11.80;;;;;;;;;;8339344;28;20608;-65
2022/01/17 23:58:10;;;;;;;25.40;11.77;;;;;;;;;;8339952;28;20022;-65
